Time;durP1;ratioP1;P1;durP2;ratioP2;P2;SDS_P1;SDS_P2;PMS_P1;PMS_P2;Temp;Humidity;BMP_temperature;BMP_pressure;BME280_temperature;BME280_humidity;BME280_pressure;Samples;Min_cycle;Max_cycle;Signal;HPM_P1;HPM_P2
2022/03/20 00:00:11;;;;;;;31.35;24.83;;;4.20;1.00;;;4.11;47.13;103632.84;4979651;28;20642;-72
2022/03/20 00:02:42;;;;;;;41.17;22.88;;;4.20;1.00;;;4.12;46.58;103621.13;4980694;28;20176;-72
2022/03/20 00:05:11;;;;;;;41.97;25.83;;;4.20;1.00;;;4.07;46.84;103625.03;4980085;28;20234;-72
2022/03/20 00:07:41;;;;;;;32.90;23.17;;;4.20;1.00;;;4.12;46.37;103622.94;4979324;28;20551;-71
2022/03/20 00:10:10;;;;;;;28.25;22.80;;;4.20;1.00;;;4.09;46.33;103618.66;4981098;28;20638;-72
2022/03/20 00:12:40;;;;;;;33.05;24.77;;;4.20;1.00;;;4.10;46.03;103619.53;4976107;28;20550;-73
2022/03/20 00:15:11;;;;;;;30.75;23.73;;;4.20;1.00;;;4.00;46.12;103615.69;4975562;28;20215;-71
2022/03/20 00:17:41;;;;;;;35.83;22.77;;;4.20;1.00;;;4.06;45.87;103623.34;4975591;28;20179;-71
2022/03/20 00:20:11;;;;;;;34.05;25.08;;;4.10;1.00;;;4.08;45.46;103621.41;4975804;28;20632;-70
2022/03/20 00:22:40;;;;;;;35.78;23.45;;;4.20;1.00;;;4.05;45.57;103618.94;4958105;28;20183;-70
2022/03/20 00:25:09;;;;;;;31.98;24.02;;;4.20;1.00;;;4.07;45.04;103625.03;4975825;28;20223;-71
2022/03/20 00:27:39;;;;;;;28.08;23.27;;;4.20;1.00;;;4.10;44.74;103625.75;4976479;28;20757;-71
2022/03/20 00:30:09;;;;;;;36.03;22.60;;;4.20;1.00;;;4.07;44.73;103619.69;4976563;28;20211;-70
2022/03/20 00:32:38;;;;;;;37.58;23.05;;;4.20;1.00;;;4.11;44.60;103616.75;4976904;28;20202;-72
2022/03/20 00:35:09;;;;;;;31.17;22.65;;;4.20;1.00;;;4.08;44.55;103613.38;4977607;28;20211;-73
2022/03/20 00:37:38;;;;;;;35.25;23.33;;;4.20;1.00;;;3.97;44.91;103618.56;4977230;28;20238;-71
2022/03/20 00:40:08;;;;;;;36.05;23.58;;;4.10;1.00;;;4.00;44.59;103613.00;4977346;28;20213;-71
2022/03/20 00:42:37;;;;;;;27.45;22.10;;;4.10;1.00;;;3.99;44.79;103616.63;4976626;28;20183;-71
2022/03/20 00:45:07;;;;;;;36.13;22.92;;;4.10;1.00;;;3.96;44.89;103611.47;4976502;28;20302;-71
2022/03/20 00:47:37;;;;;;;30.77;21.10;;;4.10;1.00;;;3.91;44.57;103614.44;4980437;28;20239;-70
2022/03/20 00:50:09;;;;;;;33.88;24.65;;;4.10;1.00;;;3.97;44.44;103602.47;4983981;28;20199;-71
2022/03/20 00:52:38;;;;;;;35.50;24.80;;;4.10;1.00;;;3.89;44.56;103601.09;4985168;28;20207;-72
2022/03/20 00:55:07;;;;;;;32.63;22.52;;;4.00;1.00;;;3.88;44.58;103610.09;4982804;28;20207;-71
2022/03/20 00:57:36;;;;;;;35.40;23.70;;;4.00;1.00;;;3.84;45.20;103605.88;4978813;28;20286;-70
2022/03/20 01:00:07;;;;;;;33.85;25.17;;;4.00;1.00;;;3.75;45.54;103609.13;4978712;28;20233;-71
2022/03/20 01:02:39;;;;;;;40.05;23.85;;;3.90;1.00;;;3.63;46.07;103609.84;4979820;28;20184;-71
2022/03/20 01:05:10;;;;;;;28.90;22.08;;;3.80;1.00;;;3.58;46.42;103603.91;4977899;28;20273;-72
2022/03/20 01:07:40;;;;;;;30.83;23.63;;;3.70;1.00;;;3.47;46.82;103604.53;4978453;28;20602;-72
2022/03/20 01:10:11;;;;;;;32.30;23.33;;;3.60;1.00;;;3.35;47.29;103593.69;4977622;28;20168;-71
2022/03/20 01:12:41;;;;;;;30.42;22.63;;;3.50;1.00;;;3.30;47.48;103599.31;4976860;28;20210;-70
2022/03/20 01:15:13;;;;;;;31.02;24.63;;;3.50;1.00;;;3.33;47.51;103595.59;4976548;28;20211;-71
2022/03/20 01:17:42;;;;;;;34.78;25.20;;;3.50;1.00;;;3.24;47.69;103598.81;4975930;28;20183;-71
2022/03/20 01:20:14;;;;;;;36.10;23.05;;;3.40;1.00;;;3.20;48.13;103590.06;4975845;28;20223;-70
2022/03/20 01:22:43;;;;;;;43.55;24.45;;;3.30;1.00;;;3.16;48.41;103590.34;4976004;28;20211;-72
2022/03/20 01:25:12;;;;;;;31.75;23.63;;;3.30;1.00;;;3.06;48.61;103598.91;4975005;28;20215;-72
2022/03/20 01:27:42;;;;;;;33.95;25.02;;;3.20;1.00;;;3.01;48.82;103589.41;4974689;28;20175;-71
2022/03/20 01:30:12;;;;;;;35.55;25.30;;;3.20;1.00;;;2.92;49.22;103596.16;4974833;28;20183;-70
2022/03/20 01:32:41;;;;;;;33.92;25.20;;;3.10;1.00;;;2.96;48.90;103581.66;4974925;28;20183;-72
2022/03/20 01:35:14;;;;;;;31.58;25.05;;;3.10;1.00;;;2.95;48.90;103585.28;4975225;28;20211;-71
2022/03/20 01:37:42;;;;;;;36.42;24.05;;;3.10;1.00;;;2.94;48.92;103582.72;4974501;28;20187;-72
2022/03/20 01:40:11;;;;;;;29.98;22.60;;;3.10;1.00;;;2.92;49.00;103584.59;4974102;28;20203;-71
2022/03/20 01:42:40;;;;;;;29.48;23.70;;;3.00;1.00;;;2.87;49.02;103584.84;4974457;28;20188;-71
2022/03/20 01:45:16;;;;;;;34.92;24.70;;;3.00;1.00;;;2.85;48.83;103586.78;4974401;28;20262;-72
2022/03/20 01:47:47;;;;;;;35.40;25.92;;;3.00;1.00;;;2.78;49.42;103582.72;4974016;28;20593;-70
2022/03/20 01:50:19;;;;;;;33.15;24.90;;;3.00;1.00;;;2.75;49.20;103580.22;4974072;28;20595;-72
2022/03/20 01:52:51;;;;;;;34.92;25.67;;;2.90;1.00;;;2.66;49.64;103571.84;4973860;28;20192;-71
2022/03/20 01:55:24;;;;;;;35.47;26.17;;;2.90;1.00;;;2.64;49.81;103566.56;4973606;28;20262;-69
2022/03/20 01:57:54;;;;;;;35.90;24.77;;;2.80;1.00;;;2.64;49.77;103563.91;4973903;28;20188;-71
2022/03/20 02:00:25;;;;;;;34.90;26.23;;;2.80;1.00;;;2.63;49.88;103559.50;4973841;28;20568;-70
2022/03/20 02:02:54;;;;;;;37.30;24.25;;;2.80;1.00;;;2.62;49.58;103557.75;4956374;28;20231;-71
2022/03/20 02:05:25;;;;;;;33.25;22.58;;;2.80;1.00;;;2.60;49.42;103562.34;4973594;28;20218;-70
2022/03/20 02:07:55;;;;;;;34.72;24.48;;;2.70;1.00;;;2.61;49.53;103556.91;4973536;28;20215;-69
2022/03/20 02:10:35;;;;;;;37.28;23.83;;;2.70;1.00;;;2.59;49.26;103549.91;4973673;28;20176;-71
2022/03/20 02:13:06;;;;;;;33.10;23.95;;;2.70;1.00;;;2.59;49.12;103552.59;4973446;28;20184;-71
2022/03/20 02:15:36;;;;;;;35.20;22.02;;;2.70;1.00;;;2.56;49.15;103555.44;4973811;28;20696;-71
2022/03/20 02:18:07;;;;;;;33.88;23.88;;;2.70;1.00;;;2.56;48.93;103542.09;4974028;28;20210;-72
2022/03/20 02:20:37;;;;;;;38.67;24.00;;;2.70;1.00;;;2.61;49.07;103548.03;4973715;28;20266;-70
2022/03/20 02:23:08;;;;;;;31.38;25.05;;;2.70;1.00;;;2.55;49.18;103537.69;4974094;28;20708;-71
2022/03/20 02:25:38;;;;;;;36.40;24.77;;;2.70;1.00;;;2.57;49.12;103543.78;4974177;28;20235;-71
2022/03/20 02:28:07;;;;;;;30.33;21.30;;;2.70;1.00;;;2.53;49.21;103534.22;4973828;28;20638;-70
2022/03/20 02:30:36;;;;;;;36.50;24.20;;;2.70;1.00;;;2.48;49.65;103529.13;4973947;28;20179;-70
2022/03/20 02:33:08;;;;;;;33.85;22.70;;;2.60;1.00;;;2.49;49.26;103538.03;4973840;28;20194;-73
2022/03/20 02:35:39;;;;;;;28.05;22.27;;;2.60;1.00;;;2.45;49.15;103534.66;4976890;28;20219;-71
2022/03/20 02:38:10;;;;;;;37.33;23.70;;;2.60;1.00;;;2.50;48.66;103537.06;4976802;28;20274;-71
2022/03/20 02:40:39;;;;;;;33.28;24.80;;;2.60;1.00;;;2.59;48.62;103524.06;4959347;28;20203;-71
2022/03/20 02:43:08;;;;;;;31.30;23.33;;;2.70;1.00;;;2.62;47.96;103518.53;4976814;28;20278;-71
2022/03/20 02:45:38;;;;;;;32.40;24.02;;;2.70;1.00;;;2.73;47.57;103519.72;4976858;28;20238;-71
2022/03/20 02:48:06;;;;;;;28.77;21.40;;;2.80;1.00;;;2.64;47.59;103515.78;4977172;28;20215;-71
2022/03/20 02:50:38;;;;;;;34.78;22.92;;;2.80;1.00;;;2.68;47.54;103517.31;4976622;28;20259;-71
2022/03/20 02:53:13;;;;;;;34.15;25.10;;;2.80;1.00;;;2.68;47.50;103511.97;4976596;28;20176;-71
2022/03/20 02:55:45;;;;;;;30.80;21.80;;;2.80;1.00;;;2.73;47.19;103506.34;4976426;28;20679;-71
2022/03/20 02:58:17;;;;;;;31.35;22.90;;;2.80;1.00;;;2.68;47.58;103514.63;4976892;28;20187;-72
2022/03/20 03:00:47;;;;;;;31.50;23.83;;;2.80;1.00;;;2.62;47.43;103499.81;4976923;28;20231;-71
2022/03/20 03:03:16;;;;;;;32.75;21.00;;;2.80;1.00;;;2.60;47.56;103515.09;4976960;28;20191;-71
2022/03/20 03:05:47;;;;;;;28.13;22.75;;;2.80;1.00;;;2.67;47.47;103504.88;4976581;28;20298;-71
2022/03/20 03:11:04;;;;;;;38.35;22.38;;;2.80;1.00;;;2.55;47.75;103516.28;4976861;28;20175;-71
2022/03/20 03:13:35;;;;;;;31.80;22.52;;;2.70;1.00;;;2.60;47.53;103516.91;4959364;28;20215;-70
2022/03/20 03:16:09;;;;;;;37.05;22.83;;;2.70;1.00;;;2.54;47.61;103503.88;4976700;28;20206;-71
2022/03/20 03:18:43;;;;;;;35.22;23.15;;;2.70;1.00;;;2.56;47.56;103507.34;4959409;28;20184;-68
2022/03/20 03:21:14;;;;;;;34.72;22.35;;;2.70;1.00;;;2.54;47.78;103509.22;4978131;28;20286;-70
2022/03/20 03:23:46;;;;;;;40.75;24.77;;;2.70;1.00;;;2.52;47.82;103503.09;4978189;28;20179;-71
2022/03/20 03:26:16;;;;;;;31.00;23.58;;;2.60;1.00;;;2.52;47.79;103505.75;4961636;28;20227;-70
2022/03/20 03:28:45;;;;;;;30.33;23.08;;;2.60;1.00;;;2.40;47.91;103506.47;4977253;28;20191;-70
2022/03/20 03:31:14;;;;;;;31.83;21.55;;;2.60;1.00;;;2.45;47.71;103497.25;4976731;28;20175;-70
2022/03/20 03:36:26;;;;;;;33.80;22.52;;;2.60;1.00;;;2.43;47.82;103507.16;4976390;28;20753;-71
2022/03/20 03:38:57;;;;;;;31.35;24.65;;;2.60;1.00;;;2.41;47.81;103502.84;4976273;28;20191;-71
2022/03/20 03:41:26;;;;;;;37.60;25.33;;;2.60;1.00;;;2.40;47.81;103495.78;4976544;28;20199;-73
2022/03/20 03:43:55;;;;;;;36.95;25.42;;;2.50;1.00;;;2.38;47.94;103503.88;4976041;28;20187;-70
2022/03/20 03:46:24;;;;;;;36.13;24.25;;;2.50;1.00;;;2.38;47.98;103509.22;4974807;28;20211;-71
2022/03/20 03:48:53;;;;;;;32.63;24.40;;;2.50;1.00;;;2.33;48.19;103508.59;4975290;28;20550;-72
2022/03/20 03:51:22;;;;;;;30.50;24.73;;;2.50;1.00;;;2.37;48.05;103501.28;4975439;28;20183;-69
2022/03/20 03:53:51;;;;;;;35.03;22.08;;;2.50;1.00;;;2.30;48.29;103505.25;4975737;28;20554;-71
2022/03/20 03:56:22;;;;;;;35.85;24.33;;;2.40;1.00;;;2.27;48.49;103503.63;4975280;28;20595;-69
2022/03/20 03:58:51;;;;;;;30.23;22.52;;;2.40;1.00;;;2.27;48.24;103502.75;4975208;28;20191;-70
2022/03/20 04:01:20;;;;;;;25.90;21.67;;;2.40;1.00;;;2.22;48.47;103505.69;4975055;28;20213;-70
2022/03/20 04:03:50;;;;;;;31.80;22.98;;;2.30;1.00;;;2.18;48.65;103499.63;4975080;28;20554;-71
2022/03/20 04:06:18;;;;;;;32.85;25.08;;;2.40;1.00;;;2.12;48.80;103502.66;4975357;28;20215;-71
2022/03/20 04:08:47;;;;;;;34.58;23.08;;;2.30;1.00;;;2.09;48.94;103504.59;4975569;28;20211;-70
2022/03/20 04:11:16;;;;;;;31.25;23.48;;;2.20;1.00;;;2.07;48.96;103502.03;4975358;28;20188;-70
2022/03/20 04:13:47;;;;;;;34.28;25.42;;;2.20;1.00;;;1.99;49.43;103492.69;4975625;28;20171;-70
2022/03/20 04:16:16;;;;;;;31.08;22.20;;;2.20;1.00;;;2.03;49.28;103489.78;4975218;28;20261;-70
2022/03/20 04:18:45;;;;;;;31.85;23.55;;;2.20;1.00;;;2.01;49.51;103488.16;4958904;28;20500;-71
2022/03/20 04:21:14;;;;;;;37.95;25.42;;;2.20;1.00;;;1.93;49.73;103496.59;4977622;28;20203;-70
2022/03/20 04:23:45;;;;;;;35.75;23.17;;;2.10;1.00;;;1.89;49.96;103497.69;4976013;28;20234;-70
2022/03/20 04:26:17;;;;;;;36.35;25.08;;;2.10;1.00;;;1.79;50.24;103487.59;5172327;23;20595;-65
2022/03/20 04:28:49;;;;;;;32.10;21.75;;;2.00;1.00;;;1.89;49.96;103483.50;4975650;28;20208;-66
2022/03/20 04:31:20;;;;;;;36.17;23.30;;;2.00;1.00;;;1.78;50.18;103489.41;4976112;28;20534;-67
2022/03/20 04:33:53;;;;;;;36.22;23.90;;;2.00;1.00;;;1.78;50.26;103484.06;4976313;28;20231;-67
2022/03/20 04:36:25;;;;;;;31.40;23.02;;;1.90;1.00;;;1.67;50.67;103484.63;4976415;28;20215;-67
2022/03/20 04:38:57;;;;;;;36.88;23.77;;;1.90;1.00;;;1.67;50.63;103489.97;4976027;28;20176;-67
2022/03/20 04:41:26;;;;;;;31.77;23.40;;;1.80;1.00;;;1.64;50.80;103492.81;4976587;28;20198;-67
2022/03/20 04:43:58;;;;;;;33.42;21.98;;;1.80;1.00;;;1.67;50.55;103483.75;4976246;28;20664;-67
2022/03/20 04:46:27;;;;;;;34.35;23.38;;;1.80;1.00;;;1.65;50.91;103493.66;4976244;28;20211;-66
2022/03/20 05:00:02;;;;;;;36.42;23.70;;;1.60;1.00;;;1.40;51.85;103499.44;4974538;28;20179;-67
2022/03/20 05:02:32;;;;;;;30.92;22.67;;;1.60;1.00;;;1.43;51.59;103506.41;4974465;28;20203;-66
2022/03/20 05:05:01;;;;;;;34.42;24.48;;;1.60;1.00;;;1.42;51.81;103504.66;4974398;28;20192;-66
2022/03/20 05:07:30;;;;;;;31.25;24.52;;;1.60;1.00;;;1.43;51.71;103503.75;4974595;28;20191;-66
2022/03/20 05:15:36;;;;;;;35.90;26.27;;;1.60;1.00;;;1.46;51.39;103506.22;4974271;28;20293;-66
2022/03/20 05:18:05;;;;;;;31.40;22.02;;;1.60;1.00;;;1.54;50.81;103512.94;4974427;28;20668;-66
2022/03/20 05:20:34;;;;;;;36.80;22.45;;;1.70;1.00;;;1.51;51.10;103507.72;4974406;28;20680;-67
2022/03/20 05:23:03;;;;;;;30.80;22.48;;;1.60;1.00;;;1.56;51.03;103502.16;4974372;28;20196;-66
2022/03/20 05:25:32;;;;;;;35.25;23.48;;;1.70;1.00;;;1.54;50.89;103504.91;4974797;28;20207;-66
2022/03/20 05:28:02;;;;;;;36.47;26.13;;;1.70;1.00;;;1.51;50.83;103506.84;4974703;28;20551;-66
2022/03/20 05:30:31;;;;;;;31.45;23.20;;;1.70;1.00;;;1.53;50.98;103515.66;4974928;28;20231;-66
2022/03/20 05:33:02;;;;;;;41.40;24.15;;;1.70;1.00;;;1.54;50.78;103510.25;4975139;28;20614;-66
2022/03/20 05:35:31;;;;;;;31.48;23.33;;;1.70;1.00;;;1.60;50.82;103509.91;4974657;28;20225;-66
2022/03/20 05:38:01;;;;;;;34.20;24.20;;;1.70;1.00;;;1.57;50.74;103514.56;4974956;28;20194;-66
2022/03/20 05:40:30;;;;;;;31.30;22.00;;;1.70;1.00;;;1.59;50.59;103512.69;4974197;28;20176;-66
2022/03/20 05:43:00;;;;;;;33.95;25.23;;;1.70;1.00;;;1.64;50.23;103513.31;4974395;28;20261;-66
2022/03/20 05:45:29;;;;;;;34.63;23.73;;;1.70;1.00;;;1.62;50.62;103513.38;4974433;28;20211;-65
2022/03/20 05:47:58;;;;;;;37.65;23.55;;;1.70;1.00;;;1.63;50.49;103508.91;4974200;28;20172;-68
2022/03/20 05:50:29;;;;;;;30.92;23.95;;;1.70;1.00;;;1.64;50.42;103506.16;4974213;28;20641;-66
2022/03/20 05:52:58;;;;;;;33.83;22.88;;;1.80;1.00;;;1.66;50.35;103519.41;4974405;28;20544;-66
2022/03/20 05:58:13;;;;;;;37.17;23.80;;;1.80;1.00;;;1.83;49.51;103527.41;4975025;28;20187;-66
2022/03/20 06:00:43;;;;;;;34.85;23.70;;;1.90;1.00;;;1.95;49.30;103515.19;4975929;28;20621;-67
2022/03/20 06:03:14;;;;;;;31.88;25.33;;;2.00;1.00;;;1.95;49.04;103526.72;4976216;28;20291;-66
2022/03/20 06:05:47;;;;;;;29.88;21.73;;;2.00;1.00;;;1.99;48.92;103528.28;4976107;28;20727;-66
2022/03/20 06:08:16;;;;;;;40.55;24.17;;;2.00;1.00;;;2.08;48.78;103533.13;4974881;28;20187;-66
2022/03/20 06:10:45;;;;;;;35.78;24.83;;;2.10;1.00;;;2.08;48.39;103530.47;4977428;28;20227;-67
2022/03/20 06:13:14;;;;;;;30.33;22.30;;;2.20;1.00;;;2.13;48.44;103531.06;4977832;28;20202;-66
2022/03/20 06:15:46;;;;;;;41.53;26.08;;;2.20;1.00;;;2.25;48.00;103531.34;4977879;28;20238;-66
2022/03/20 06:18:15;;;;;;;31.23;23.65;;;2.30;1.00;;;2.30;47.91;103531.97;4977723;28;20348;-66
2022/03/20 06:20:47;;;;;;;39.55;25.10;;;2.40;1.00;;;2.37;47.82;103525.34;4978341;28;20238;-67
2022/03/20 06:23:16;;;;;;;35.47;24.55;;;2.40;1.00;;;2.39;47.76;103535.00;4977857;28;20204;-66
2022/03/20 06:25:51;;;;;;;35.40;23.73;;;2.50;1.00;;;2.44;47.36;103524.91;4977751;28;20234;-67
2022/03/20 06:28:20;;;;;;;41.20;23.05;;;2.50;1.00;;;2.52;47.08;103528.00;4976347;28;20255;-67
2022/03/20 06:30:49;;;;;;;27.52;23.70;;;2.60;1.00;;;2.53;46.97;103528.88;4977346;28;20598;-66
2022/03/20 06:33:18;;;;;;;32.22;23.30;;;2.60;1.00;;;2.54;47.03;103528.81;4977512;28;20576;-66
2022/03/20 06:35:49;;;;;;;33.13;22.25;;;2.60;1.00;;;2.57;46.94;103530.41;4977527;28;20238;-66
2022/03/20 06:38:18;;;;;;;37.72;23.67;;;2.60;1.00;;;2.55;47.14;103533.19;4977196;28;20179;-66
2022/03/20 06:40:48;;;;;;;32.33;22.13;;;2.60;1.00;;;2.63;46.78;103530.09;4977229;28;20211;-67
2022/03/20 06:43:16;;;;;;;39.70;24.50;;;2.70;1.00;;;2.68;47.07;103537.84;4977154;28;20211;-65
2022/03/20 06:45:46;;;;;;;40.50;25.67;;;2.70;1.00;;;2.71;46.87;103530.50;4977788;28;20223;-67
2022/03/20 06:48:15;;;;;;;27.42;23.55;;;2.80;1.00;;;2.86;46.62;103534.97;4977438;28;20175;-66
2022/03/20 06:50:44;;;;;;;37.55;25.48;;;2.80;1.00;;;2.84;46.26;103539.56;4977715;28;20192;-67
2022/03/20 06:53:17;;;;;;;32.05;24.60;;;2.90;1.00;;;2.86;46.33;103548.34;4978195;28;20184;-66
2022/03/20 06:55:47;;;;;;;33.00;24.63;;;2.90;1.00;;;2.93;46.18;103543.53;4979277;28;20204;-67
2022/03/20 06:58:17;;;;;;;38.75;25.63;;;2.90;1.00;;;3.03;46.16;103556.28;4979529;28;20180;-68
2022/03/20 07:00:47;;;;;;;29.90;23.63;;;3.00;1.00;;;3.18;45.84;103553.66;4978904;28;20255;-66
2022/03/20 07:03:16;;;;;;;35.17;26.77;;;3.20;1.00;;;3.22;45.76;103555.22;4977118;28;20607;-67
2022/03/20 07:05:45;;;;;;;39.92;24.13;;;3.20;1.00;;;3.31;45.36;103550.19;4978317;28;20284;-67
2022/03/20 07:08:15;;;;;;;37.35;25.50;;;3.30;1.00;;;3.41;45.16;103546.00;4977556;28;20180;-66
2022/03/20 07:10:48;;;;;;;38.60;25.17;;;3.40;1.00;;;3.42;44.77;103542.38;4977836;28;20188;-66
2022/03/20 07:16:04;;;;;;;30.98;23.92;;;3.50;1.00;;;3.64;43.64;103547.28;4978257;28;20214;-67
2022/03/20 07:18:36;;;;;;;36.55;25.33;;;3.60;1.00;;;3.70;43.81;103544.25;4977953;28;20192;-66
2022/03/20 07:21:08;;;;;;;34.05;25.60;;;3.70;1.00;;;3.68;43.61;103538.13;4977392;28;20641;-67
2022/03/20 07:23:39;;;;;;;29.80;23.90;;;3.70;1.00;;;3.80;43.23;103548.09;4978314;28;20199;-68
2022/03/20 07:31:57;;;;;;;36.40;25.45;;;3.90;1.00;;;4.07;42.24;103533.94;4955594;29;20654;-66
2022/03/20 07:34:27;;;;;;;34.35;25.33;;;4.00;1.00;;;4.15;42.34;103537.88;4955069;29;20176;-66
2022/03/20 07:36:56;;;;;;;34.17;23.85;;;4.10;1.00;;;4.38;42.13;103531.06;4965562;28;20592;-67
2022/03/20 07:39:30;;;;;;;38.60;26.25;;;4.30;1.00;;;4.38;41.87;103525.69;4976181;28;20238;-67
2022/03/20 07:42:00;;;;;;;36.58;24.17;;;4.40;1.00;;;4.42;41.68;103523.66;4976350;28;20176;-66
2022/03/20 07:44:31;;;;;;;40.50;25.52;;;4.40;1.00;;;4.47;41.59;103530.47;4976201;28;20625;-66
2022/03/20 07:47:01;;;;;;;35.80;24.08;;;4.50;1.00;;;4.62;41.23;103528.59;4976100;28;20216;-67
2022/03/20 07:49:31;;;;;;;31.58;23.17;;;4.60;1.00;;;4.61;41.39;103525.06;4976168;28;20219;-66
2022/03/20 07:52:00;;;;;;;40.58;28.17;;;4.60;1.00;;;4.71;40.89;103536.91;4976366;28;20168;-66
2022/03/20 07:54:31;;;;;;;37.75;26.38;;;4.70;1.00;;;4.86;40.75;103524.31;4976135;28;20215;-69
2022/03/20 07:57:00;;;;;;;30.95;24.13;;;4.80;1.00;;;4.94;40.65;103531.88;4975994;28;20620;-67
2022/03/20 07:59:29;;;;;;;35.95;23.75;;;4.90;1.00;;;4.97;40.36;103537.03;4975596;28;20259;-67
2022/03/20 08:01:59;;;;;;;35.00;23.38;;;4.90;1.00;;;5.05;40.60;103529.31;4975851;28;20255;-67
2022/03/20 08:04:28;;;;;;;34.00;24.60;;;5.00;1.00;;;5.33;39.90;103523.81;4975607;28;20561;-67
2022/03/20 08:06:57;;;;;;;34.33;25.05;;;5.20;1.00;;;5.39;39.74;103526.09;4975518;28;20269;-67
2022/03/20 08:09:28;;;;;;;30.73;23.40;;;5.30;1.00;;;5.53;39.06;103528.69;4975835;28;20211;-67
2022/03/20 08:11:58;;;;;;;32.03;24.92;;;5.40;1.00;;;5.69;39.05;103526.66;4975536;28;20217;-66
2022/03/20 08:14:29;;;;;;;40.40;25.70;;;5.50;1.00;;;5.83;38.42;103527.53;4975726;28;20700;-67
2022/03/20 08:16:58;;;;;;;31.77;23.90;;;5.70;1.00;;;5.79;38.74;103537.63;4975124;28;20215;-66
2022/03/20 08:19:27;;;;;;;28.83;22.90;;;5.70;1.00;;;5.95;38.15;103529.41;4975127;28;20167;-68
2022/03/20 08:21:58;;;;;;;29.58;23.98;;;5.80;1.00;;;6.03;38.24;103533.25;4974288;28;20223;-67
2022/03/20 08:24:27;;;;;;;32.58;23.35;;;5.90;1.00;;;6.16;38.18;103530.53;4975481;28;20680;-67
2022/03/20 08:26:58;;;;;;;30.60;24.02;;;6.00;1.00;;;6.30;37.96;103537.63;4975187;28;20262;-67
2022/03/20 08:29:27;;;;;;;30.65;24.83;;;6.10;1.00;;;6.24;37.43;103536.25;4974953;28;20634;-67
2022/03/20 08:31:56;;;;;;;32.83;25.98;;;6.10;1.00;;;6.25;37.49;103524.50;4974320;28;20664;-67
2022/03/20 08:34:25;;;;;;;37.67;28.88;;;6.20;1.00;;;6.44;37.32;103535.66;4974727;28;20195;-67
2022/03/20 08:36:54;;;;;;;34.13;23.25;;;6.30;1.00;;;6.50;37.23;103529.84;4974962;28;20262;-66
2022/03/20 08:39:24;;;;;;;34.65;24.15;;;6.40;1.00;;;6.68;37.28;103516.84;4974951;28;20692;-67
2022/03/20 08:41:53;;;;;;;36.13;23.70;;;6.50;1.00;;;6.79;36.81;103524.13;4974866;28;20251;-67
2022/03/20 08:44:26;;;;;;;34.15;25.08;;;6.70;1.00;;;6.97;36.71;103525.47;4974869;28;20568;-66
2022/03/20 08:46:55;;;;;;;36.35;24.92;;;6.80;1.00;;;6.91;36.50;103509.78;4974620;28;20298;-67
2022/03/20 08:49:24;;;;;;;36.30;24.48;;;6.80;1.00;;;7.06;36.79;103510.47;4973389;28;20184;-65
2022/03/20 08:51:53;;;;;;;31.73;24.75;;;6.90;1.00;;;7.08;36.43;103509.34;4974815;28;20207;-67
2022/03/20 08:54:22;;;;;;;33.72;23.95;;;7.00;1.00;;;6.97;36.13;103510.16;4974074;28;20215;-67
2022/03/20 08:56:51;;;;;;;33.33;23.52;;;7.00;1.00;;;6.87;36.39;103516.38;4975623;28;20707;-66
2022/03/20 08:59:20;;;;;;;26.00;22.83;;;6.90;1.00;;;7.07;36.43;103496.84;4974837;28;20637;-67
2022/03/20 09:01:50;;;;;;;29.10;23.20;;;6.90;1.00;;;7.26;36.42;103499.88;4975209;28;20190;-66
2022/03/20 09:04:19;;;;;;;34.00;26.27;;;7.10;1.00;;;7.30;36.23;103498.69;4974395;28;20231;-66
2022/03/20 09:06:50;;;;;;;31.80;24.73;;;7.20;1.00;;;7.51;36.03;103500.66;4974885;28;20245;-66
2022/03/20 09:09:19;;;;;;;33.40;25.70;;;7.30;1.00;;;7.63;35.81;103500.59;4974327;28;20656;-66
2022/03/20 09:11:48;;;;;;;32.35;25.10;;;7.50;1.00;;;7.73;35.46;103511.50;4974363;28;20183;-66
2022/03/20 09:14:17;;;;;;;31.65;25.25;;;7.60;1.00;;;7.81;35.56;103503.66;4972937;28;20199;-67
2022/03/20 09:19:33;;;;;;;31.27;25.23;;;7.70;1.00;;;7.98;35.25;103499.66;4974497;28;20523;-66
2022/03/20 09:22:02;;;;;;;41.75;26.95;;;7.80;1.00;;;8.00;34.90;103501.22;4974308;28;20176;-66
2022/03/20 09:24:31;;;;;;;31.15;24.20;;;7.90;1.00;;;8.04;35.07;103494.59;4974471;28;20211;-66
2022/03/20 09:27:02;;;;;;;38.92;27.33;;;7.90;1.00;;;8.12;34.70;103486.78;4973726;28;20218;-66
2022/03/20 09:29:31;;;;;;;32.95;25.05;;;8.00;1.00;;;8.24;34.78;103488.47;4973929;28;20254;-67
2022/03/20 09:32:01;;;;;;;32.65;24.60;;;8.10;1.00;;;8.54;34.33;103485.16;4974211;28;20640;-67
2022/03/20 09:34:32;;;;;;;31.35;23.45;;;8.30;1.00;;;8.56;34.15;103485.03;4974159;28;20167;-67
2022/03/20 09:37:04;;;;;;;31.83;25.80;;;8.40;1.00;;;8.62;33.98;103481.81;4974400;28;20223;-67
2022/03/20 09:39:32;;;;;;;31.70;22.88;;;8.50;1.00;;;8.73;33.84;103488.03;4974147;28;20179;-67
2022/03/20 09:42:06;;;;;;;31.02;24.35;;;8.60;1.00;;;8.84;33.64;103473.66;4973674;28;20191;-67
2022/03/20 09:44:38;;;;;;;30.40;24.30;;;8.70;1.00;;;8.82;33.39;103481.00;4977067;28;20226;-67
2022/03/20 09:47:12;;;;;;;39.40;27.75;;;8.70;1.00;;;8.98;33.30;103475.19;4977521;28;20219;-67
2022/03/20 09:49:49;;;;;;;35.92;24.50;;;8.80;1.00;;;9.18;33.07;103474.38;4977516;28;20179;-66
2022/03/20 09:52:22;;;;;;;30.63;24.15;;;9.00;1.00;;;9.45;32.34;103473.84;4977541;28;20579;-68
2022/03/20 09:54:51;;;;;;;31.75;23.52;;;9.20;1.00;;;9.37;32.45;103470.94;4977400;28;20199;-67
2022/03/20 09:57:20;;;;;;;26.23;22.63;;;9.20;1.00;;;9.45;32.44;103471.13;4978185;28;20191;-66
2022/03/20 09:59:49;;;;;;;32.13;24.40;;;9.30;1.00;;;9.54;32.34;103476.59;4978151;28;20584;-66
2022/03/20 10:02:18;;;;;;;31.13;23.75;;;9.40;1.00;;;9.65;31.95;103469.41;4977902;28;20266;-66
2022/03/20 10:04:56;;;;;;;27.63;22.92;;;9.40;1.00;;;9.73;31.81;103462.31;4978142;28;20246;-66
2022/03/20 10:07:29;;;;;;;29.80;24.10;;;9.50;1.00;;;9.69;31.85;103466.28;4978178;28;20274;-66
2022/03/20 10:10:09;;;;;;;32.25;22.75;;;9.50;1.00;;;9.71;31.42;103464.31;4978223;28;20202;-67
2022/03/20 10:12:45;;;;;;;32.83;24.98;;;9.60;1.00;;;9.80;31.44;103460.81;4978019;28;20176;-68
2022/03/20 10:15:35;;;;;;;31.42;24.70;;;9.60;1.00;;;10.08;31.46;103455.66;4979718;28;20223;-68
2022/03/20 10:18:11;;;;;;;28.90;24.17;;;9.80;1.00;;;10.20;31.02;103452.75;4982125;28;20203;-66
2022/03/20 10:20:44;;;;;;;30.88;23.35;;;10.00;1.00;;;10.14;30.65;103450.56;4980636;28;20176;-67
2022/03/20 10:23:33;;;;;;;28.42;23.73;;;10.00;1.00;;;10.19;31.15;103452.88;4981111;28;20187;-66
2022/03/20 10:26:06;;;;;;;30.90;23.40;;;10.00;1.00;;;10.42;30.59;103443.53;5000652;23;20215;-70
2022/03/20 10:28:39;;;;;;;29.65;22.83;;;10.20;1.00;;;10.45;30.68;103449.53;4977315;28;20195;-71
2022/03/20 10:31:10;;;;;;;30.23;23.13;;;10.30;1.00;;;10.64;30.57;103445.16;4960027;28;20215;-71
2022/03/20 10:33:41;;;;;;;28.98;22.92;;;10.40;1.00;;;10.78;30.30;103442.03;4977427;28;20425;-71
2022/03/20 10:36:13;;;;;;;25.43;22.20;;;10.50;1.00;;;10.89;29.41;103442.72;4976760;28;20242;-69
2022/03/20 10:38:46;;;;;;;33.23;20.73;;;10.70;1.00;;;10.80;29.03;103437.31;4976381;28;20453;-70
2022/03/20 10:41:25;;;;;;;28.93;22.03;;;10.70;1.00;;;10.67;29.74;103440.28;4976869;28;20498;-71
2022/03/20 10:43:57;;;;;;;25.77;21.63;;;10.60;1.00;;;10.77;29.74;103440.31;4976942;28;20453;-70
2022/03/20 10:46:28;;;;;;;22.47;19.97;;;10.60;1.00;;;10.76;29.23;103427.75;4976984;28;20475;-72
2022/03/20 10:49:02;;;;;;;27.10;21.67;;;10.60;1.00;;;10.99;29.05;103436.47;4977768;28;20430;-71
2022/03/20 10:51:42;;;;;;;25.50;22.17;;;10.80;1.00;;;10.98;29.08;103437.47;4977867;28;20429;-72
2022/03/20 10:54:14;;;;;;;24.20;20.90;;;10.80;1.00;;;11.01;28.51;103434.44;4977269;28;20435;-73
2022/03/20 10:56:56;;;;;;;28.00;20.53;;;10.80;1.00;;;10.93;28.45;103431.63;4976473;28;20442;-71
2022/03/20 10:59:27;;;;;;;26.60;20.30;;;10.80;1.00;;;10.99;28.71;103425.63;4977413;28;20912;-71
2022/03/20 11:01:57;;;;;;;27.80;20.00;;;10.80;1.00;;;11.38;28.71;103427.25;4976617;28;20431;-70
2022/03/20 11:04:28;;;;;;;22.47;19.93;;;11.00;1.00;;;11.32;28.56;103419.72;4959402;28;20446;-71
2022/03/20 11:06:59;;;;;;;23.90;20.10;;;11.10;1.00;;;11.30;28.30;103419.88;4976830;28;20493;-72